• Join FlightAware (Why Join?)
  • Login
  • US Flag 
Gobble Gobble! 
01:44AM EST


 

Airport Tracker/Info


-or-


 

Live Flight TrackerFlight Track Log ✈ NKS331 ✈ 24-Apr-2013 ✈ KLGA - KORD

Flight Track Log - Related Links

Times and Time Zones

All times are in EDT time to prevent confusion due to time zone crossing. See the NKS331 flight status page for this flight to view local times or setup timezone preferences in your user account.

Time Position Orientation Groundspeed Altitude Reporting Facility
EDT Latitude Longitude Course Direction KTS MPH feet Rate Location/Type
11:44PM 40.7640 -73.8350 279° West 168 193 1,400  Level FlightAware
11:44PM 40.7590 -73.8200 114° Southeast 192 221 1,700 960 Climbing FlightAware
11:44PM 40.7580 -73.8090 97° East 219 252 1,800 1,200 Climbing FlightAware
11:45PM 40.7780 -73.7690 57° Northeast 272 313 2,500 2,880 Climbing FlightAware
11:45PM 40.8100 -73.7460 29° Northeast 246 283 4,700 3,480 Climbing FlightAware
11:46PM 40.8360 -73.7320 22° Northeast 262 302 5,700 2,280 Climbing FlightAware
11:46PM 40.8730 -73.7110 23° Northeast 295 339 6,800 2,460 Climbing FlightAware
11:47PM 40.9100 -73.7210 348° North 279 321 8,200 2,820 Climbing FlightAware
11:47PM 40.9190 -73.7320 317° Northwest 272 313 8,700 3,600 Climbing FlightAware
11:47PM 40.9275 -73.7548 296° West 265 305 9,600 2,580 Climbing FlightAware ADS-B
11:47PM 40.9422 -73.8015 293° West 293 337 10,600 1,320 Climbing FlightAware ADS-B
11:48PM 40.9597 -73.8561 293° West 334 384 11,000 780 Climbing FlightAware ADS-B
11:48PM 40.9791 -73.9143 294° West 341 392 11,400 900 Climbing FlightAware ADS-B
11:48PM 40.9800 -73.9170 294° West 342 394 11,500 2,700 Climbing FlightAware ADS-B
11:49PM 41.0000 -73.9707 296° West 340 391 12,800 2,760 Climbing FlightAware ADS-B
11:49PM 41.0006 -73.9724 295° West 340 391 12,900 4,500 Climbing FlightAware ADS-B
11:49PM 41.0027 -73.9788 294° West 337 388 13,100 3,720 Climbing FlightAware ADS-B
11:49PM 41.0055 -73.9883 291° West 333 383 13,400 3,000 Climbing FlightAware ADS-B
11:49PM 41.0085 -74.0012 287° West 330 380 13,700 2,100 Climbing FlightAware ADS-B
11:50PM 41.0177 -74.0487 284° West 339 390 14,500 2,160 Climbing FlightAware ADS-B
11:50PM 41.0202 -74.0627 283° West 342 394 14,800 2,280 Climbing FlightAware ADS-B
11:50PM 41.0295 -74.1137 284° West 343 395 15,700 1,920 Climbing FlightAware ADS-B
11:50PM 41.0315 -74.1249 283° West 341 392 15,800 720 Climbing FlightAware ADS-B
11:51PM 41.0406 -74.1748 284° West 336 387 16,100 600 Climbing FlightAware ADS-B
11:51PM 41.0425 -74.1853 283° West 337 388 16,100 360 Level FlightAware ADS-B
11:51PM 41.0520 -74.2376 284° West 344 396 16,300 1,320 Climbing FlightAware ADS-B
11:52PM 41.0637 -74.3010 284° West 351 404 17,400 2,100 Climbing FlightAware ADS-B
11:52PM 41.0759 -74.3668 284° West 358 412 18,500 2,340 Climbing FlightAware ADS-B
11:53PM 41.0879 -74.4314 284° West 356 410 19,800 2,580 Climbing FlightAware ADS-B
11:53PM 41.0996 -74.4949 284° West 354 407 21,100 2,100 Climbing FlightAware ADS-B
11:54PM 41.1113 -74.5591 284° West 363 418 21,900 1,800 Climbing FlightAware ADS-B
11:54PM 41.1232 -74.6239 284° West 364 419 22,900 1,860 Climbing FlightAware ADS-B
11:54PM 41.1300 -74.6558 286° West 371 427 23,300 1,500 Climbing FlightAware ADS-B
11:55PM 41.1391 -74.6902 289° West 378 435 23,700 1,620 Climbing FlightAware ADS-B
11:55PM 41.1480 -74.7178 293° West 383 441 24,100 1,680 Climbing FlightAware ADS-B
11:55PM 41.1635 -74.7581 297° West 390 449 24,600 1,260 Climbing FlightAware ADS-B
11:56PM 41.1934 -74.8261 300° West 404 465 25,200 1,320 Climbing FlightAware ADS-B
11:56PM 41.2221 -74.8920 300° West 409 471 26,000 1,620 Climbing FlightAware ADS-B
11:57PM 41.2508 -74.9582 300° West 409 471 26,900 1,620 Climbing FlightAware ADS-B
11:57PM 41.2796 -75.0247 300° West 409 471 27,700 1,260 Climbing FlightAware ADS-B
11:58PM 41.3083 -75.0914 300° West 415 478 28,200 1,260 Climbing FlightAware ADS-B
11:58PM 41.3370 -75.1580 300° West 416 479 29,000 1,380 Climbing FlightAware ADS-B
11:59PM 41.3658 -75.2251 300° West 417 480 29,600 1,080 Climbing FlightAware ADS-B
11:59PM 41.3955 -75.2946 300° West 423 487 30,100 1,200 Climbing FlightAware ADS-B
12:00AM 41.4251 -75.3635 300° West 418 481 30,900 1,620 Climbing FlightAware ADS-B
12:00AM 41.4543 -75.4317 300° West 411 473 31,800 1,680 Climbing FlightAware ADS-B
12:01AM 41.4685 -75.4659 299° West 405 466 32,200 1,440 Climbing FlightAware ADS-B
12:01AM 41.4823 -75.5048 295° West 399 459 32,600 1,260 Climbing FlightAware ADS-B
12:01AM 41.4894 -75.5286 292° West 395 455 32,800 1,800 Climbing FlightAware ADS-B
12:02AM 41.5086 -75.5959 291° West 384 442 33,800 1,620 Climbing FlightAware ADS-B
12:02AM 41.5278 -75.6627 291° West 380 437 34,500 1,140 Climbing FlightAware ADS-B
12:03AM 41.5463 -75.7279 291° West 380 437 35,000 1,140 Climbing FlightAware ADS-B
12:03AM 41.5660 -75.7968 291° West 377 434 35,700 960 Climbing FlightAware ADS-B
12:04AM 41.5849 -75.8626 291° West 371 427 36,000 240 Climbing FlightAware ADS-B
12:04AM 41.6031 -75.9272 291° West 373 429 36,000  Level FlightAware ADS-B
12:05AM 41.6221 -75.9948 291° West 378 435 36,000  Level FlightAware ADS-B
12:05AM 41.6411 -76.0620 291° West 384 442 36,000  Level FlightAware ADS-B
12:06AM 41.6598 -76.1284 291° West 386 444 36,000  Level FlightAware ADS-B
12:06AM 41.6788 -76.1957 291° West 384 442 36,000  Level FlightAware ADS-B
12:07AM 41.6978 -76.2629 291° West 384 442 36,000  Level FlightAware ADS-B
12:07AM 41.7166 -76.3303 291° West 384 442 36,000  Level FlightAware ADS-B
12:08AM 41.7377 -76.4062 290° West 383 441 36,000  Level FlightAware ADS-B
12:08AM 41.7560 -76.4720 290° West 380 437 36,000  Level FlightAware ADS-B
12:09AM 41.7745 -76.5393 290° West 378 435 36,000  Level FlightAware ADS-B
12:09AM 41.7939 -76.6090 290° West 378 435 36,000  Level FlightAware ADS-B
12:11AM 41.8516 -76.8190 290° West 375 432 36,000  Level FlightAware ADS-B
12:12AM 41.8830 -76.9334 290° West 377 434 36,000  Level FlightAware ADS-B
12:12AM 41.8970 -76.9850 290° West 377 434 36,000  Level FlightAware
12:16AM 42.0260 -77.4660 290° West 368 423 36,000  Level FlightAware
12:17AM 42.0678 -77.6264 290° West 380 437 36,000  Level Cleveland Center
12:23AM 42.2850 -78.4580 290° West 390 449 36,000  Level FlightAware
12:24AM 42.3090 -78.5490 290° West 381 438 36,000  Level FlightAware
12:25AM 42.3270 -78.6220 288° West 379 436 36,000 -120 Level FlightAware
12:25AM 42.3530 -78.7230 289° West 382 440 35,900  Descending FlightAware
12:26AM 42.3840 -78.8450 289° West 383 441 36,000 60 Climbing FlightAware
12:27AM 42.4080 -78.9420 289° West 386 444 36,000  Level FlightAware
12:27AM 42.4270 -79.0190 289° West 391 450 36,000  Level FlightAware
12:28AM 42.4550 -79.1320 289° West 392 451 36,000  Level FlightAware
12:29AM 42.4790 -79.2260 289° West 393 452 36,000  Level FlightAware
12:30AM 42.4940 -79.3360 281° West 386 444 36,000  Level FlightAware
12:30AM 42.4980 -79.4340 273° West 382 440 36,000  Level FlightAware
12:31AM 42.5040 -79.5510 274° West 379 436 36,000  Level FlightAware
12:32AM 42.5080 -79.6290 274° West 376 433 36,000  Level FlightAware
12:33AM 42.5130 -79.7430 273° West 375 432 36,000 -120 Level FlightAware
12:33AM 42.5180 -79.8410 274° West 377 434 35,900  Descending FlightAware
12:34AM 42.5210 -79.9150 273° West 381 438 36,000 60 Climbing FlightAware
12:35AM 42.5260 -80.0200 274° West 385 443 36,000  Level FlightAware
12:35AM 42.5310 -80.1290 274° West 387 445 36,000  Level FlightAware
12:36AM 42.5350 -80.2370 273° West 386 444 36,000  Level FlightAware
12:37AM 42.5400 -80.3380 274° West 382 440 36,000  Level FlightAware
12:37AM 42.5430 -80.4280 273° West 382 440 36,000  Level FlightAware
12:38AM 42.5480 -80.5440 273° West 382 440 36,000  Level FlightAware
12:39AM 42.5520 -80.6410 273° West 382 440 36,000  Level FlightAware
12:39AM 42.5550 -80.7180 273° West 382 440 36,000  Level FlightAware
12:40AM 42.5590 -80.8320 273° West 379 436 36,000  Level FlightAware
12:41AM 42.5630 -80.9450 273° West 377 434 36,000  Level FlightAware
12:42AM 42.5660 -81.0250 273° West 376 433 36,000  Level FlightAware
12:42AM 42.5700 -81.1360 273° West 376 433 36,000  Level FlightAware
12:43AM 42.5730 -81.2390 272° West 378 435 36,000  Level FlightAware
12:44AM 42.5760 -81.3340 272° West 380 437 36,000  Level FlightAware
12:44AM 42.5800 -81.4150 274° West 384 442 36,000  Level FlightAware
12:45AM 42.5970 -81.5260 282° West 390 449 36,000  Level FlightAware
12:46AM 42.6180 -81.6470 283° West 390 449 36,000  Level FlightAware
12:47AM 42.6340 -81.7380 283° West 391 450 36,000  Level FlightAware
12:47AM 42.6490 -81.8210 284° West 392 451 36,000  Level FlightAware
12:48AM 42.6680 -81.9330 283° West 392 451 36,000  Level FlightAware
12:49AM 42.6860 -82.0330 284° West 394 453 36,000  Level FlightAware
12:49AM 42.7040 -82.1390 283° West 394 453 36,000  Level FlightAware
12:50AM 42.7210 -82.2370 283° West 395 455 36,000  Level FlightAware
12:51AM 42.7430 -82.3670 283° West 395 455 36,000  Level FlightAware
12:51AM 42.7600 -82.4700 283° West 395 455 36,000  Level FlightAware
12:52AM 42.7660 -82.5070 282° West 395 455 36,000  Level FlightAware
12:53AM 42.7750 -82.6590 275° West 391 450 36,000  Level FlightAware
12:54AM 42.7780 -82.7360 273° West 391 450 36,000  Level FlightAware
12:54AM 42.7820 -82.8260 273° West 393 452 36,000  Level FlightAware
12:55AM 42.7870 -82.9490 273° West 394 453 36,000  Level FlightAware
12:56AM 42.7910 -83.0350 274° West 393 452 36,000  Level FlightAware
12:56AM 42.7960 -83.1560 273° West 391 450 36,000  Level FlightAware
12:57AM 42.7990 -83.2570 272° West 390 449 36,000  Level FlightAware
12:58AM 42.8030 -83.3640 273° West 389 448 36,000  Level FlightAware
12:58AM 42.8070 -83.4660 273° West 389 448 36,000  Level FlightAware
12:59AM 42.8100 -83.5560 273° West 388 447 36,000  Level FlightAware
01:00AM 42.8140 -83.6580 273° West 387 445 36,000  Level FlightAware
01:01AM 42.8180 -83.7820 273° West 386 444 36,000  Level FlightAware
01:01AM 42.8220 -83.9060 273° West 387 445 36,000  Level FlightAware
01:02AM 42.8250 -84.0120 272° West 388 447 36,000  Level FlightAware
01:03AM 42.8280 -84.1090 272° West 388 447 36,000  Level FlightAware
01:03AM 42.8310 -84.2230 272° West 390 449 36,000  Level FlightAware
01:04AM 42.8340 -84.3210 272° West 390 449 36,000  Level FlightAware
01:05AM 42.8370 -84.4280 272° West 390 449 36,000  Level FlightAware
01:05AM 42.8400 -84.5280 272° West 390 449 36,000  Level FlightAware
01:06AM 42.8420 -84.6240 272° West 391 450 36,000  Level FlightAware
01:07AM 42.8450 -84.7340 272° West 392 451 36,000  Level FlightAware
01:08AM 42.8470 -84.8350 272° West 392 451 36,000  Level FlightAware
01:08AM 42.8440 -84.9680 268° West 388 447 36,000  Level FlightAware
01:09AM 42.8320 -85.0780 262° West 390 449 36,000  Level FlightAware
01:10AM 42.8220 -85.1740 262° West 393 452 36,000  Level FlightAware
01:11AM 42.8100 -85.2870 262° West 393 452 36,000  Level FlightAware
01:11AM 42.7990 -85.3820 261° West 393 452 36,000 -120 Level FlightAware
01:12AM 42.7900 -85.4670 262° West 382 440 35,900 -1,320 Descending FlightAware
01:13AM 42.7710 -85.5830 257° West 378 435 34,200 -2,340 Descending FlightAware
01:13AM 42.7540 -85.6780 256° West 382 440 32,400 -2,340 Descending FlightAware
01:14AM 42.7370 -85.7700 256° West 375 432 31,100 -2,160 Descending FlightAware
01:15AM 42.7190 -85.8730 257° West 369 425 29,400 -2,220 Descending FlightAware
01:15AM 42.7030 -85.9600 256° West 363 418 28,000 -2,160 Descending FlightAware
01:16AM 42.6840 -86.0610 256° West 358 412 26,400 -2,100 Descending FlightAware
01:17AM 42.6690 -86.1420 256° West 352 405 25,100 -1,500 Descending FlightAware
01:18AM 42.6530 -86.2340 257° West 376 433 24,400 -1,080 Descending FlightAware
01:18AM 42.6330 -86.3400 256° West 401 461 23,600 -1,140 Descending FlightAware
01:19AM 42.6140 -86.4380 255° West 389 448 22,800 -2,160 Descending FlightAware
01:20AM 42.5950 -86.5440 256° West 376 433 20,600 -3,000 Descending FlightAware
01:20AM 42.5770 -86.6340 255° West 369 425 18,600 -3,000 Descending FlightAware
01:21AM 42.5600 -86.7230 255° West 362 417 16,600 -2,820 Descending FlightAware
01:22AM 42.5420 -86.7920 251° West 355 409 15,100 -2,760 Descending FlightAware
01:22AM 42.5130 -86.8990 250° West 347 399 12,700 -2,880 Descending FlightAware
01:23AM 42.4890 -86.9880 250° West 337 388 10,600 -2,400 Descending FlightAware
01:24AM 42.4750 -87.0360 248° West 336 387 9,900 -900 Descending FlightAware
01:24AM 42.4590 -87.0960 250° West 337 388 9,800 -120 Descending FlightAware
01:25AM 42.4450 -87.1480 250° West 337 388 9,800  Level FlightAware
01:25AM 42.4370 -87.1760 249° West 336 387 9,800  Level FlightAware
01:25AM 42.4210 -87.2360 250° West 316 364 9,800  Level FlightAware
01:26AM 42.4010 -87.2720 233° Southwest 288 331 9,800 -600 Level FlightAware
01:26AM 42.3690 -87.2990 212° Southwest 263 303 9,300 -1,080 Descending FlightAware
01:26AM 42.3540 -87.3120 213° Southwest 261 300 9,000 -1,500 Descending FlightAware
01:27AM 42.3280 -87.3340 212° Southwest 260 299 8,300 -1,680 Descending FlightAware
01:27AM 42.2980 -87.3590 212° Southwest 258 297 7,500 -1,740 Descending FlightAware
01:28AM 42.2670 -87.3860 213° Southwest 256 295 6,600 -1,680 Descending FlightAware
01:28AM 42.2420 -87.4080 213° Southwest 255 293 6,000 -1,440 Descending FlightAware
01:29AM 42.2140 -87.4330 213° Southwest 250 288 5,300 -1,440 Descending FlightAware
01:29AM 42.1890 -87.4540 212° Southwest 246 283 4,700 -1,440 Descending FlightAware
01:30AM 42.1610 -87.4790 214° Southwest 240 276 4,000 -900 Descending FlightAware
01:30AM 42.1340 -87.5030 213° Southwest 240 276 3,800 -300 Descending FlightAware
01:30AM 42.1240 -87.5110 211° Southwest 241 277 3,800  Level FlightAware
01:31AM 42.0960 -87.5360 214° Southwest 240 276 3,800  Level FlightAware
01:31AM 42.0680 -87.5610 214° Southwest 241 277 3,800  Level FlightAware
01:32AM 42.0460 -87.5800 213° Southwest 224 258 3,800  Level FlightAware
01:32AM 42.0330 -87.5920 214° Southwest 209 241 3,800  Level FlightAware
01:32AM 42.0240 -87.6040 225° Southwest 195 224 3,800  Level FlightAware
01:33AM 42.0110 -87.6280 234° Southwest 176 203 3,800  Level FlightAware
01:33AM 42.0050 -87.6400 236° Southwest 173 199 3,800 -840 Level FlightAware
01:33AM 41.9920 -87.6670 237° Southwest 173 199 3,200 -1,020 Descending FlightAware
01:34AM 41.9860 -87.6940 253° West 171 197 2,900 -600 Descending FlightAware
01:34AM 41.9840 -87.7080 259° West 170 196 2,800 -180 Descending FlightAware
01:35AM 41.9840 -87.7390 270° West 163 188 2,800 -420 Level FlightAware
01:35AM 41.9840 -87.7540 270° West 154 177 2,500 -900 Descending FlightAware
01:35AM 41.9840 -87.7740 270° West 135 155 2,200 -780 Descending FlightAware
01:36AM 41.9840 -87.8010 270° West 126 145 1,800 -780 Descending FlightAware
01:36AM 41.9840 -87.8200 270° West 128 147 1,500 -660 Descending FlightAware
01:37AM 41.9840 -87.8440 270° West 129 148 1,200 -720 Descending FlightAware
01:37AM 41.9840 -87.8550 270° West 129 148 1,000 -780 Descending FlightAware
01:37AM 41.9840 -87.8760 270° West 130 150 700 -720 Descending FlightAware